www.bettendroffer.lu
Wetterdaten: lundi, 26.09.2011
Datum Zeit Temp. 1 ext. Temp. 3 Feuchte 1 Feuchte 3 Luftdruck Regen Wind Richtung Richtung Taupunkt Windchill
26.09.2011 00:16 12,0 C 13,2 C 28 % 46 % 1016 hPa 0,0 l/m 0,0 km/h (0 Bft) SO 145 -5,9 C 12,0 C
26.09.2011 00:46 11,7 C 13,2 C 30 % 46 % 1016 hPa 0,0 l/m 0,0 km/h (0 Bft) SO 145 -5,3 C 11,7 C
26.09.2011 01:16 11,5 C 13,2 C 30 % 46 % 1016 hPa 0,0 l/m 0,0 km/h (0 Bft) SO 145 -5,5 C 11,5 C
26.09.2011 01:46 11,0 C 13,2 C 31 % 46 % 1016 hPa 0,0 l/m 0,0 km/h (0 Bft) SO 145 -5,5 C 11,0 C
26.09.2011 02:16 10,7 C 13,2 C 32 % 46 % 1016 hPa 0,0 l/m 0,0 km/h (0 Bft) SO 145 -5,3 C 10,7 C
26.09.2011 02:46 10,4 C 13,2 C 32 % 46 % 1016 hPa 0,0 l/m 0,0 km/h (0 Bft) SO 145 -5,6 C 10,4 C
26.09.2011 03:16 10,2 C 13,2 C 33 % 46 % 1016 hPa 0,0 l/m 0,0 km/h (0 Bft) SO 145 -5,3 C 10,2 C
26.09.2011 03:46 9,8 C 13,2 C 35 % 46 % 1016 hPa 0,0 l/m 0,0 km/h (0 Bft) SO 145 -4,9 C 9,8 C
26.09.2011 04:16 9,9 C 13,2 C 35 % 46 % 1016 hPa 0,0 l/m 0,0 km/h (0 Bft) SO 145 -4,8 C 9,9 C
26.09.2011 04:46 9,9 C 13,2 C 36 % 46 % 1016 hPa 0,0 l/m 0,0 km/h (0 Bft) SO 145 -4,5 C 9,9 C
26.09.2011 05:16 9,7 C 13,2 C 36 % 46 % 1017 hPa 0,0 l/m 0,0 km/h (0 Bft) SO 145 -4,6 C 9,7 C
26.09.2011 05:46 9,9 C 13,2 C 37 % 46 % 1017 hPa 0,0 l/m 0,0 km/h (0 Bft) SO 145 -4,1 C 9,9 C
26.09.2011 06:16 10,0 C 13,2 C 37 % 46 % 1017 hPa 0,0 l/m 0,0 km/h (0 Bft) SO 145 -4,0 C 10,0 C
26.09.2011 06:46 9,6 C 13,2 C 38 % 46 % 1017 hPa 0,0 l/m 0,0 km/h (0 Bft) SO 145 -4,0 C 9,6 C
26.09.2011 07:16 9,4 C 13,2 C 38 % 46 % 1017 hPa 0,0 l/m 0,0 km/h (0 Bft) SO 145 -4,2 C 9,4 C
26.09.2011 07:46 9,6 C 13,2 C 40 % 46 % 1017 hPa 0,0 l/m 0,0 km/h (0 Bft) SO 145 -3,3 C 9,6 C
26.09.2011 08:16 9,7 C 13,2 C 40 % 46 % 1018 hPa 0,0 l/m 0,0 km/h (0 Bft) SO 145 -3,2 C 9,7 C
26.09.2011 08:46 10,0 C 13,2 C 40 % 46 % 1018 hPa 0,0 l/m 0,0 km/h (0 Bft) SO 145 -3,0 C 10,0 C
26.09.2011 09:16 10,4 C 13,2 C 40 % 46 % 1018 hPa 0,0 l/m 0,0 km/h (0 Bft) SO 145 -2,6 C 10,4 C
26.09.2011 09:46 11,2 C 13,2 C 41 % 46 % 1018 hPa 0,0 l/m 0,0 km/h (0 Bft) SO 145 -1,6 C 11,2 C
26.09.2011 10:16 12,0 C 11,3 C 41 % 61 % 1018 hPa 0,0 l/m 0,0 km/h (0 Bft) SO 145 -0,8 C 12,0 C
26.09.2011 10:46 12,8 C 11,3 C 42 % 61 % 1018 hPa 0,0 l/m 0,0 km/h (0 Bft) SO 145 0,2 C 12,8 C
26.09.2011 11:16 16,1 C 11,3 C 39 % 61 % 1018 hPa 0,0 l/m 0,0 km/h (0 Bft) SO 145 2,1 C 16,1 C
26.09.2011 11:46 17,5 C 11,3 C 36 % 61 % 1018 hPa 0,0 l/m 0,0 km/h (0 Bft) SO 145 2,3 C 17,5 C
26.09.2011 12:16 18,4 C 11,3 C 35 % 61 % 1018 hPa 0,0 l/m 0,0 km/h (0 Bft) SO 145 2,7 C 18,4 C
26.09.2011 12:46 20,4 C 11,3 C 30 % 61 % 1018 hPa 0,0 l/m 0,0 km/h (0 Bft) SO 145 2,2 C 20,4 C
26.09.2011 13:16 22,5 C 11,3 C 23 % 61 % 1018 hPa 0,0 l/m 0,0 km/h (0 Bft) SO 145 0,3 C 22,5 C
26.09.2011 13:46 26,4 C 11,3 C 20 % 22 % 1018 hPa 0,0 l/m 0,0 km/h (0 Bft) SO 145 1,6 C 26,4 C
26.09.2011 14:16 28,1 C 11,3 C 20 % 22 % 1018 hPa 0,0 l/m 0,0 km/h (0 Bft) SO 145 3,0 C 28,1 C
26.09.2011 14:46 26,3 C 11,3 C 20 % 22 % 1018 hPa 0,0 l/m 0,0 km/h (0 Bft) SO 145 1,5 C 26,3 C
26.09.2011 15:16 25,8 C 11,3 C 20 % 22 % 1018 hPa 0,0 l/m 0,0 km/h (0 Bft) SO 145 1,1 C 25,8 C
26.09.2011 15:46 25,1 C 11,3 C 20 % 22 % 1018 hPa 0,0 l/m 0,0 km/h (0 Bft) SO 145 0,6 C 25,1 C
26.09.2011 16:16 25,7 C 11,3 C 20 % 22 % 1018 hPa 0,0 l/m 0,0 km/h (0 Bft) SO 145 1,1 C 25,7 C
26.09.2011 16:46 25,4 C 11,3 C 20 % 22 % 1018 hPa 0,0 l/m 0,0 km/h (0 Bft) SO 145 0,8 C 25,4 C
26.09.2011 17:16 24,4 C 11,3 C 20 % 22 % 1018 hPa 0,0 l/m 0,0 km/h (0 Bft) SO 145 -0,0 C 24,4 C
26.09.2011 17:46 24,2 C 11,3 C 20 % 22 % 1018 hPa 0,0 l/m 0,0 km/h (0 Bft) SO 145 -0,2 C 24,2 C
26.09.2011 18:16 23,7 C 11,3 C 20 % 22 % 1018 hPa 0,0 l/m 0,0 km/h (0 Bft) SO 145 -0,6 C 23,7 C
26.09.2011 18:46 22,7 C 11,3 C 20 % 22 % 1019 hPa 0,0 l/m 0,0 km/h (0 Bft) SO 145 -1,4 C 22,7 C
26.09.2011 19:16 20,7 C 11,3 C 20 % 22 % 1019 hPa 0,0 l/m 0,0 km/h (0 Bft) SO 145 -3,1 C 20,7 C
26.09.2011 19:46 19,1 C 11,3 C 20 % 22 % 1019 hPa 0,0 l/m 0,0 km/h (0 Bft) SO 145 -4,4 C 19,1 C
26.09.2011 20:16 17,3 C 11,3 C 20 % 22 % 1019 hPa 0,0 l/m 0,0 km/h (0 Bft) SO 145 -5,9 C 17,3 C
26.09.2011 20:46 16,7 C 11,3 C 100 % 22 % 1020 hPa 0,0 l/m 0,0 km/h (0 Bft) SO 145 16,7 C 16,7 C
26.09.2011 21:16 15,8 C 11,3 C 20 % 22 % 1020 hPa 0,0 l/m 0,0 km/h (0 Bft) SO 145 -7,1 C 15,8 C
26.09.2011 21:46 15,3 C 11,3 C 21 % 22 % 1020 hPa 0,0 l/m 0,0 km/h (0 Bft) SO 145 -6,9 C 15,3 C
26.09.2011 22:16 14,7 C 11,3 C 25 % 22 % 1020 hPa 0,0 l/m 0,0 km/h (0 Bft) SO 145 -5,1 C 14,7 C
26.09.2011 22:46 14,7 C 11,3 C 25 % 22 % 1021 hPa 0,0 l/m 0,0 km/h (0 Bft) SO 145 -5,1 C 14,7 C
26.09.2011 23:16 14,7 C 11,3 C 25 % 22 % 1021 hPa 0,0 l/m 0,0 km/h (0 Bft) SO 145 -5,1 C 14,7 C
26.09.2011 23:46 14,7 C 11,3 C 25 % 22 % 1021 hPa 0,0 l/m 0,0 km/h (0 Bft) SO 145 -5,1 C 14,7 C
_ Min-Zeit 07:16 10:16 13:46 13:46 00:16 - 00:16 - - 21:16 07:16
Minimum _ 9,4 C 11,3 C 20 % 22 % 1016 hPa - 0,0 km/h (0 Bft) - - -7,1 C 9,4 C
_ Max-Zeit 14:16 00:16 20:46 10:16 22:46 00:16 00:16 - - 20:46 14:16
Maximum _ 28,1 C 13,2 C 100 % 61 % 1021 hPa 0,0 l/m 0,0 km/h
SO (0 Bft)
- - 16,7 C 28,1 C
Durchschnitt _ 16,0 C 12,1 C 31 % 38 % 1018 hPa #0,0 l/m 0,0 km/h (0 Bft) - - - -2,1 C 16,0 C
©2001-2010 Bettendroffer Claude